Time;durP1;ratioP1;P1;durP2;ratioP2;P2;SDS_P1;SDS_P2;PMS_P1;PMS_P2;Temp;Humidity;BMP_temperature;BMP_pressure;BME280_temperature;BME280_humidity;BME280_pressure;Samples;Min_cycle;Max_cycle;Signal;HPM_P1;HPM_P2
2022/05/21 00:00:55;;;;;;;12.40;11.18;;;;;;;;;;2082641;28;20168;-54
2022/05/21 00:01:56;;;;;;;12.23;11.02;;;;;;;;;;2082889;28;20226;-55
2022/05/21 00:02:56;;;;;;;11.80;10.55;;;;;;;;;;2082910;28;20172;-53
2022/05/21 00:03:56;;;;;;;12.07;10.93;;;;;;;;;;2080839;28;20208;-54
2022/05/21 00:04:56;;;;;;;11.57;10.40;;;;;;;;;;2082689;28;20176;-54
2022/05/21 00:05:57;;;;;;;11.10;10.05;;;;;;;;;;2082513;28;20180;-55
2022/05/21 00:06:57;;;;;;;11.95;10.73;;;;;;;;;;2082822;28;20176;-57
2022/05/21 00:07:58;;;;;;;10.05;9.15;;;;;;;;;;2082989;28;20751;-57
2022/05/21 00:08:58;;;;;;;10.73;9.50;;;;;;;;;;2082795;28;20259;-54
2022/05/21 00:09:58;;;;;;;11.68;10.02;;;;;;;;;;2090537;28;20690;-54
2022/05/21 00:10:58;;;;;;;11.40;10.43;;;;;;;;;;2090533;28;20186;-53
2022/05/21 00:11:59;;;;;;;10.63;9.63;;;;;;;;;;2082881;28;20673;-54
2022/05/21 00:12:59;;;;;;;10.82;9.82;;;;;;;;;;2082097;28;20187;-53
2022/05/21 00:14:00;;;;;;;11.07;10.07;;;;;;;;;;2081433;28;20236;-48
2022/05/21 00:15:00;;;;;;;11.98;10.75;;;;;;;;;;2082519;28;20198;-55
2022/05/21 00:16:01;;;;;;;9.98;9.18;;;;;;;;;;2082131;28;20160;-56
2022/05/21 00:17:01;;;;;;;9.75;8.85;;;;;;;;;;2082394;28;20795;-54
2022/05/21 00:18:02;;;;;;;13.85;10.27;;;;;;;;;;2083124;28;20171;-53
2022/05/21 00:19:02;;;;;;;10.98;9.32;;;;;;;;;;2082569;28;20168;-53
2022/05/21 00:20:03;;;;;;;10.48;9.48;;;;;;;;;;2083080;28;20207;-53
2022/05/21 00:21:04;;;;;;;11.93;9.68;;;;;;;;;;2082823;28;20254;-58
2022/05/21 00:22:04;;;;;;;10.15;9.15;;;;;;;;;;2083035;28;20259;-55
2022/05/21 00:23:11;;;;;;;13.75;9.38;;;;;;;;;;2082579;28;20180;-54
2022/05/21 00:24:11;;;;;;;9.77;8.82;;;;;;;;;;2082966;28;20200;-54
2022/05/21 00:25:11;;;;;;;9.85;8.80;;;;;;;;;;2082636;28;20260;-53
2022/05/21 00:26:13;;;;;;;10.40;9.40;;;;;;;;;;2082987;28;20723;-53
2022/05/21 00:27:13;;;;;;;10.48;8.82;;;;;;;;;;2091022;28;20243;-53
2022/05/21 00:28:14;;;;;;;9.57;8.75;;;;;;;;;;2074736;28;20568;-52
2022/05/21 00:29:14;;;;;;;10.02;8.98;;;;;;;;;;2074542;28;20177;-56
2022/05/21 00:30:15;;;;;;;9.98;9.07;;;;;;;;;;2083547;28;20176;-55
2022/05/21 00:31:16;;;;;;;10.05;9.05;;;;;;;;;;2083328;28;20172;-56
2022/05/21 00:32:16;;;;;;;10.25;9.25;;;;;;;;;;2081045;28;20188;-55
2022/05/21 00:33:17;;;;;;;8.60;7.85;;;;;;;;;;2083377;28;20188;-53
2022/05/21 00:34:17;;;;;;;11.70;8.40;;;;;;;;;;2082429;28;20216;-52
2022/05/21 00:35:17;;;;;;;9.48;8.10;;;;;;;;;;2082918;28;20195;-52
2022/05/21 00:36:18;;;;;;;8.23;7.38;;;;;;;;;;2083415;28;20175;-52
2022/05/21 00:37:18;;;;;;;9.23;8.35;;;;;;;;;;2082686;28;20195;-53
2022/05/21 00:38:19;;;;;;;9.77;8.25;;;;;;;;;;2083339;28;20306;-54
2022/05/21 00:39:19;;;;;;;9.52;8.10;;;;;;;;;;2083063;28;20227;-52
2022/05/21 00:40:20;;;;;;;8.13;7.32;;;;;;;;;;2083625;28;20204;-55
2022/05/21 00:41:20;;;;;;;8.07;7.38;;;;;;;;;;2083830;28;20196;-55
2022/05/21 00:42:21;;;;;;;8.90;8.05;;;;;;;;;;2083015;28;20180;-53
2022/05/21 00:43:36;;;;;;;8.13;7.32;;;;;;;;;;2083123;28;20168;-54
2022/05/21 00:44:37;;;;;;;8.27;7.38;;;;;;;;;;2075652;28;20173;-53
2022/05/21 00:45:37;;;;;;;8.45;7.75;;;;;;;;;;2082969;28;20172;-57
2022/05/21 00:46:39;;;;;;;11.85;7.45;;;;;;;;;;2083208;28;20176;-53
2022/05/21 00:47:39;;;;;;;8.07;7.28;;;;;;;;;;2082440;28;20618;-55
2022/05/21 00:48:40;;;;;;;8.88;8.07;;;;;;;;;;2081221;28;20180;-61
2022/05/21 00:49:41;;;;;;;7.70;6.93;;;;;;;;;;2076702;28;20219;-55
2022/05/21 00:50:41;;;;;;;7.07;6.38;;;;;;;;;;2082727;28;20326;-54
2022/05/21 00:51:50;;;;;;;10.18;6.82;;;;;;;;;;2083137;28;20650;-55
2022/05/21 00:52:51;;;;;;;8.07;7.25;;;;;;;;;;2082012;28;20714;-54
2022/05/21 00:53:53;;;;;;;7.30;6.68;;;;;;;;;;2081885;28;20203;-57
2022/05/21 00:54:57;;;;;;;9.98;7.35;;;;;;;;;;2082282;28;20616;-54
2022/05/21 00:55:57;;;;;;;7.47;6.90;;;;;;;;;;2082485;28;20175;-54
2022/05/21 00:57:01;;;;;;;6.85;6.28;;;;;;;;;;2082766;28;20160;-54
2022/05/21 01:00:43;;;;;;;10.10;8.40;;;;;;;;;;2082422;28;20157;-56
2022/05/21 01:01:45;;;;;;;8.50;7.55;;;;;;;;;;2082673;28;20641;-55
2022/05/21 01:02:47;;;;;;;8.50;7.40;;;;;;;;;;2082234;28;20181;-56
2022/05/21 01:03:47;;;;;;;8.65;6.95;;;;;;;;;;2082453;28;20176;-57
2022/05/21 01:04:48;;;;;;;8.05;7.35;;;;;;;;;;2081769;28;20652;-54
2022/05/21 01:05:48;;;;;;;7.70;7.10;;;;;;;;;;2082674;28;20539;-55
2022/05/21 01:06:49;;;;;;;10.95;7.43;;;;;;;;;;2082512;28;20259;-56
2022/05/21 01:07:52;;;;;;;9.15;7.97;;;;;;;;;;2082288;28;20180;-55
2022/05/21 01:08:52;;;;;;;10.13;8.18;;;;;;;;;;2082402;28;20169;-57
2022/05/21 01:09:53;;;;;;;7.47;6.78;;;;;;;;;;2082285;28;20595;-53
2022/05/21 01:10:56;;;;;;;8.48;7.68;;;;;;;;;;2082234;28;20211;-54
2022/05/21 01:11:56;;;;;;;13.48;8.63;;;;;;;;;;2082343;28;20245;-57
2022/05/21 01:12:57;;;;;;;10.10;7.80;;;;;;;;;;2081410;28;20334;-54
2022/05/21 01:13:58;;;;;;;10.27;8.45;;;;;;;;;;2081431;28;20252;-55
2022/05/21 01:15:00;;;;;;;9.38;7.90;;;;;;;;;;2082352;28;20191;-56
2022/05/21 01:16:00;;;;;;;9.55;8.60;;;;;;;;;;2082055;28;20168;-53
2022/05/21 01:17:01;;;;;;;10.38;9.35;;;;;;;;;;2082128;28;20692;-55
2022/05/21 01:18:05;;;;;;;9.68;8.07;;;;;;;;;;2081600;28;20188;-56
2022/05/21 01:19:06;;;;;;;15.32;9.75;;;;;;;;;;2081692;28;20718;-54
2022/05/21 01:20:08;;;;;;;11.70;9.70;;;;;;;;;;2081872;28;20183;-56
2022/05/21 01:21:08;;;;;;;13.90;10.13;;;;;;;;;;2082336;28;20179;-55
2022/05/21 01:22:08;;;;;;;9.75;8.20;;;;;;;;;;2082264;28;20263;-54
2022/05/21 01:23:09;;;;;;;10.77;9.68;;;;;;;;;;2082201;28;20662;-57
2022/05/21 01:24:10;;;;;;;11.50;9.48;;;;;;;;;;2081209;28;20290;-53
2022/05/21 01:25:11;;;;;;;10.40;9.40;;;;;;;;;;2081433;28;20191;-55
2022/05/21 01:26:20;;;;;;;13.52;10.55;;;;;;;;;;2082510;28;20168;-54
2022/05/21 01:27:21;;;;;;;13.75;9.93;;;;;;;;;;2082368;28;20219;-58
2022/05/21 01:28:22;;;;;;;13.32;10.38;;;;;;;;;;2082438;28;20254;-55
2022/05/21 01:29:26;;;;;;;12.07;10.38;;;;;;;;;;2082161;28;20176;-56
2022/05/21 01:30:32;;;;;;;13.02;10.82;;;;;;;;;;2082270;28;20709;-56
2022/05/21 01:31:32;;;;;;;14.02;10.70;;;;;;;;;;2081591;28;20176;-55
2022/05/21 01:32:34;;;;;;;15.15;10.80;;;;;;;;;;2076156;28;20350;-56
2022/05/21 01:33:36;;;;;;;13.15;11.15;;;;;;;;;;2073968;28;20161;-55
2022/05/21 01:34:37;;;;;;;15.13;11.13;;;;;;;;;;2075416;28;20188;-56
2022/05/21 01:35:39;;;;;;;13.05;11.65;;;;;;;;;;2082571;28;20207;-56
2022/05/21 01:36:39;;;;;;;14.73;11.93;;;;;;;;;;2082886;28;20161;-58
2022/05/21 01:37:41;;;;;;;14.10;11.13;;;;;;;;;;2082557;28;20199;-56
2022/05/21 01:38:42;;;;;;;12.15;11.00;;;;;;;;;;2081897;28;20747;-58
2022/05/21 01:39:42;;;;;;;12.50;11.30;;;;;;;;;;2081631;28;20645;-57
2022/05/21 01:40:43;;;;;;;13.50;11.55;;;;;;;;;;2081039;28;20259;-56
2022/05/21 01:41:44;;;;;;;12.77;11.35;;;;;;;;;;2081578;28;20271;-60
2022/05/21 01:44:37;;;;;;;16.10;11.95;;;;;;;;;;2081899;28;20620;-58
2022/05/21 01:45:23;;;;;;;15.20;12.82;;;;;;;;;;2081953;28;20668;-54
2022/05/21 01:46:24;;;;;;;18.77;12.88;;;;;;;;;;2081605;28;20173;-54
2022/05/21 01:47:24;;;;;;;15.07;13.45;;;;;;;;;;2080722;28;20187;-54
2022/05/21 01:48:27;;;;;;;17.42;14.15;;;;;;;;;;2082071;28;20255;-54
2022/05/21 01:49:27;;;;;;;17.95;14.32;;;;;;;;;;2074443;28;20204;-55
2022/05/21 01:50:28;;;;;;;17.20;14.10;;;;;;;;;;2072985;28;20640;-55
2022/05/21 01:51:29;;;;;;;14.73;13.07;;;;;;;;;;2073454;28;20271;-55
2022/05/21 01:52:29;;;;;;;16.73;14.30;;;;;;;;;;2081282;28;20172;-55
2022/05/21 01:53:29;;;;;;;15.95;14.32;;;;;;;;;;2081209;28;20178;-55
2022/05/21 01:54:30;;;;;;;15.38;13.73;;;;;;;;;;2081472;28;20172;-53
2022/05/21 01:55:31;;;;;;;16.17;14.48;;;;;;;;;;2082038;28;20207;-53
2022/05/21 01:56:31;;;;;;;17.63;14.82;;;;;;;;;;2082088;28;20176;-53
2022/05/21 01:57:31;;;;;;;16.95;15.15;;;;;;;;;;2082137;28;20176;-56
2022/05/21 01:58:32;;;;;;;16.73;14.68;;;;;;;;;;2082048;28;20541;-56
2022/05/21 01:59:32;;;;;;;17.35;14.75;;;;;;;;;;2081981;28;20179;-57
2022/05/21 02:00:33;;;;;;;16.60;14.63;;;;;;;;;;2081817;28;20250;-55
2022/05/21 02:01:33;;;;;;;16.90;14.88;;;;;;;;;;2081243;28;20165;-53
2022/05/21 02:02:35;;;;;;;20.33;16.52;;;;;;;;;;2073148;28;20184;-53
2022/05/21 02:03:35;;;;;;;16.98;15.18;;;;;;;;;;2081123;28;20645;-53
2022/05/21 02:04:36;;;;;;;20.35;16.48;;;;;;;;;;2081382;28;20179;-53
2022/05/21 02:05:36;;;;;;;17.15;15.45;;;;;;;;;;2082106;28;20645;-56
2022/05/21 02:06:37;;;;;;;18.20;16.30;;;;;;;;;;2081070;28;20188;-57
2022/05/21 02:07:37;;;;;;;18.55;16.38;;;;;;;;;;2081256;28;20290;-53
2022/05/21 02:08:37;;;;;;;17.80;15.95;;;;;;;;;;2082004;28;20600;-54
2022/05/21 02:09:38;;;;;;;18.48;16.58;;;;;;;;;;2081470;28;20822;-52
2022/05/21 02:10:39;;;;;;;19.33;16.17;;;;;;;;;;2080964;28;20586;-55
2022/05/21 02:11:41;;;;;;;19.58;16.40;;;;;;;;;;2081396;28;20718;-53
2022/05/21 02:12:41;;;;;;;18.60;16.00;;;;;;;;;;2081441;28;20202;-54
2022/05/21 02:13:41;;;;;;;19.58;16.77;;;;;;;;;;2081928;28;20243;-54
2022/05/21 02:14:42;;;;;;;19.65;16.55;;;;;;;;;;2081647;28;20549;-53
2022/05/21 02:15:43;;;;;;;18.30;16.35;;;;;;;;;;2081610;28;20199;-54
2022/05/21 02:16:43;;;;;;;19.02;15.65;;;;;;;;;;2082119;28;20201;-55
2022/05/21 02:17:43;;;;;;;17.63;15.90;;;;;;;;;;2081519;28;20247;-53
2022/05/21 02:18:44;;;;;;;20.70;18.05;;;;;;;;;;2081789;28;20168;-53
2022/05/21 02:19:44;;;;;;;21.77;17.90;;;;;;;;;;2080835;28;20185;-54
2022/05/21 02:20:46;;;;;;;20.17;18.02;;;;;;;;;;2082062;28;20195;-55
2022/05/21 02:21:47;;;;;;;20.42;17.60;;;;;;;;;;2081923;28;20641;-55
2022/05/21 02:22:47;;;;;;;18.40;16.55;;;;;;;;;;2081998;28;20175;-54
2022/05/21 02:23:48;;;;;;;22.20;18.33;;;;;;;;;;2081901;28;20708;-53
2022/05/21 02:24:48;;;;;;;21.70;19.02;;;;;;;;;;2081406;28;20694;-57
2022/05/21 02:25:50;;;;;;;26.83;19.17;;;;;;;;;;2081089;28;20176;-53
2022/05/21 02:26:50;;;;;;;19.80;17.80;;;;;;;;;;2081394;28;20217;-57
2022/05/21 02:27:51;;;;;;;22.40;19.05;;;;;;;;;;2081823;28;20195;-53
2022/05/21 02:28:52;;;;;;;20.92;17.60;;;;;;;;;;2081311;28;20180;-54
2022/05/21 02:29:52;;;;;;;23.02;19.30;;;;;;;;;;2072840;28;20321;-57
2022/05/21 02:30:52;;;;;;;22.27;20.08;;;;;;;;;;2081530;28;20168;-56
2022/05/21 02:31:53;;;;;;;23.08;18.67;;;;;;;;;;2081710;28;20511;-54
2022/05/21 02:32:53;;;;;;;23.83;21.33;;;;;;;;;;2074011;28;20254;-53
2022/05/21 02:33:53;;;;;;;22.08;19.75;;;;;;;;;;2073305;28;20188;-55
2022/05/21 02:34:53;;;;;;;23.65;19.67;;;;;;;;;;2078979;28;20625;-56
2022/05/21 02:35:54;;;;;;;22.13;19.77;;;;;;;;;;2081779;28;20261;-55
2022/05/21 02:39:31;;;;;;;21.88;19.58;;;;;;;;;;2081495;28;20218;-53
2022/05/21 02:40:32;;;;;;;23.00;19.77;;;;;;;;;;2081716;28;20168;-54
2022/05/21 02:41:32;;;;;;;21.60;19.30;;;;;;;;;;2081475;28;20572;-53
2022/05/21 02:42:45;;;;;;;23.23;20.25;;;;;;;;;;2081101;28;20230;-54
2022/05/21 02:43:46;;;;;;;23.77;21.20;;;;;;;;;;2081618;28;20180;-55
2022/05/21 02:44:46;;;;;;;23.08;20.23;;;;;;;;;;2081570;28;20211;-55
2022/05/21 02:45:47;;;;;;;23.25;20.85;;;;;;;;;;2081365;28;20168;-55
2022/05/21 02:46:47;;;;;;;28.63;21.23;;;;;;;;;;2081314;28;20180;-54
2022/05/21 02:47:48;;;;;;;24.60;21.80;;;;;;;;;;2081103;28;20180;-54
2022/05/21 02:48:48;;;;;;;23.27;20.83;;;;;;;;;;2081173;28;20168;-54
2022/05/21 02:49:49;;;;;;;23.65;20.67;;;;;;;;;;2081121;28;20613;-57
2022/05/21 02:50:49;;;;;;;24.40;21.92;;;;;;;;;;2081203;28;20633;-55
2022/05/21 02:51:50;;;;;;;23.48;20.85;;;;;;;;;;2081805;28;20294;-55
2022/05/21 02:52:50;;;;;;;26.48;21.85;;;;;;;;;;2080475;28;20156;-62
2022/05/21 02:53:50;;;;;;;24.70;21.77;;;;;;;;;;2078205;28;20576;-56
2022/05/21 02:54:51;;;;;;;24.30;21.77;;;;;;;;;;2084509;28;20215;-57
2022/05/21 02:55:53;;;;;;;24.88;22.17;;;;;;;;;;2088369;28;20180;-54
2022/05/21 02:56:53;;;;;;;26.85;22.38;;;;;;;;;;2087308;28;20199;-56
2022/05/21 02:57:54;;;;;;;23.50;20.85;;;;;;;;;;2081447;28;20181;-57
2022/05/21 02:58:54;;;;;;;26.48;23.60;;;;;;;;;;2081019;28;20629;-53
2022/05/21 02:59:54;;;;;;;26.40;23.60;;;;;;;;;;2080982;28;20195;-56
2022/05/21 03:00:55;;;;;;;27.45;24.23;;;;;;;;;;2081392;28;20545;-55
2022/05/21 03:01:55;;;;;;;29.00;23.80;;;;;;;;;;2084216;28;20626;-57
2022/05/21 03:02:56;;;;;;;25.98;23.27;;;;;;;;;;2087080;28;20230;-54
2022/05/21 03:03:56;;;;;;;26.05;23.15;;;;;;;;;;2084325;28;20276;-55
2022/05/21 03:04:57;;;;;;;29.02;23.42;;;;;;;;;;2089875;28;20195;-56
2022/05/21 03:05:58;;;;;;;25.50;22.88;;;;;;;;;;2090280;28;20182;-55
2022/05/21 03:06:58;;;;;;;27.92;23.33;;;;;;;;;;2085156;28;20546;-57
2022/05/21 03:08:00;;;;;;;24.63;21.98;;;;;;;;;;2083006;28;20187;-56
2022/05/21 03:10:23;;;;;;;28.55;23.98;;;;;;;;;;2083746;28;20180;-56
2022/05/21 03:11:23;;;;;;;25.67;22.70;;;;;;;;;;2082919;28;20176;-56
2022/05/21 03:12:23;;;;;;;27.33;23.98;;;;;;;;;;2083206;28;20223;-53
2022/05/21 03:13:24;;;;;;;25.92;23.23;;;;;;;;;;2083022;28;20176;-54
2022/05/21 03:14:25;;;;;;;26.52;23.42;;;;;;;;;;2082603;28;20701;-54
2022/05/21 03:15:36;;;;;;;26.92;22.98;;;;;;;;;;2082426;28;20195;-51
2022/05/21 03:16:36;;;;;;;26.58;23.83;;;;;;;;;;2076719;28;20172;-55
2022/05/21 03:17:36;;;;;;;29.10;24.90;;;;;;;;;;2089905;28;20199;-56
2022/05/21 03:18:37;;;;;;;28.95;23.65;;;;;;;;;;2085529;28;20549;-56
2022/05/21 03:19:37;;;;;;;28.15;25.02;;;;;;;;;;2083460;28;20172;-58
2022/05/21 03:20:38;;;;;;;29.02;25.50;;;;;;;;;;2091240;28;20171;-58
2022/05/21 03:21:38;;;;;;;29.50;26.40;;;;;;;;;;2092267;28;20186;-59
2022/05/21 03:22:42;;;;;;;28.48;24.38;;;;;;;;;;2084183;28;20169;-56
2022/05/21 03:23:42;;;;;;;27.75;24.65;;;;;;;;;;2082581;28;20222;-58
2022/05/21 03:24:43;;;;;;;28.17;24.48;;;;;;;;;;2082433;28;20153;-56
2022/05/21 03:25:43;;;;;;;27.25;24.52;;;;;;;;;;2082796;28;20203;-57
2022/05/21 03:26:43;;;;;;;25.42;22.73;;;;;;;;;;2083765;28;20180;-56
2022/05/21 03:27:43;;;;;;;27.40;24.33;;;;;;;;;;2083565;28;20208;-59
2022/05/21 03:28:44;;;;;;;29.98;22.33;;;;;;;;;;2084017;28;20219;-55
2022/05/21 03:29:44;;;;;;;28.27;24.08;;;;;;;;;;2083550;28;20172;-57
2022/05/21 03:30:44;;;;;;;26.77;24.02;;;;;;;;;;2083978;28;20169;-56
2022/05/21 03:31:44;;;;;;;27.95;23.73;;;;;;;;;;2084178;28;20673;-56
2022/05/21 03:32:45;;;;;;;26.33;22.80;;;;;;;;;;2084250;28;20257;-57
2022/05/21 03:33:45;;;;;;;26.05;23.38;;;;;;;;;;2084097;28;20168;-56
2022/05/21 03:34:45;;;;;;;27.70;24.70;;;;;;;;;;2083723;28;20251;-55
2022/05/21 03:35:47;;;;;;;26.00;23.00;;;;;;;;;;2084017;28;20222;-56
2022/05/21 03:36:47;;;;;;;24.85;22.27;;;;;;;;;;2083952;28;20164;-54
2022/05/21 03:37:47;;;;;;;26.00;22.67;;;;;;;;;;2083030;28;20186;-58
2022/05/21 03:38:48;;;;;;;26.55;23.27;;;;;;;;;;2083116;28;20176;-58
2022/05/21 03:39:49;;;;;;;27.27;24.20;;;;;;;;;;2084248;28;20205;-58
2022/05/21 03:40:49;;;;;;;26.42;23.73;;;;;;;;;;2083740;28;20168;-58
2022/05/21 03:41:49;;;;;;;26.08;23.40;;;;;;;;;;2083789;28;20168;-57
2022/05/21 03:42:50;;;;;;;26.73;24.02;;;;;;;;;;2083853;28;20200;-55
2022/05/21 03:43:51;;;;;;;28.38;24.70;;;;;;;;;;2084069;28;20180;-54
2022/05/21 03:44:51;;;;;;;25.83;22.98;;;;;;;;;;2083443;28;20584;-57
2022/05/21 03:45:52;;;;;;;24.58;22.00;;;;;;;;;;2083746;28;20179;-56
2022/05/21 03:46:52;;;;;;;26.95;23.40;;;;;;;;;;2083924;28;20168;-58
2022/05/21 03:47:53;;;;;;;29.60;23.83;;;;;;;;;;2084226;28;20660;-57
2022/05/21 03:48:53;;;;;;;28.23;21.73;;;;;;;;;;2079847;28;20177;-58
2022/05/21 03:49:53;;;;;;;23.52;21.15;;;;;;;;;;2077259;28;20237;-56
2022/05/21 03:50:53;;;;;;;24.40;22.00;;;;;;;;;;2083496;28;20185;-58
2022/05/21 03:51:53;;;;;;;26.23;20.65;;;;;;;;;;2083920;28;20206;-58
2022/05/21 03:52:54;;;;;;;23.95;19.92;;;;;;;;;;2084200;28;20684;-58
2022/05/21 03:53:54;;;;;;;26.70;21.63;;;;;;;;;;2083837;28;20290;-56
2022/05/21 03:54:54;;;;;;;27.02;22.02;;;;;;;;;;2083047;28;20196;-57
2022/05/21 03:55:55;;;;;;;23.83;21.42;;;;;;;;;;2081874;28;20639;-58
2022/05/21 03:56:56;;;;;;;24.45;22.13;;;;;;;;;;2081041;28;20620;-58
2022/05/21 03:57:56;;;;;;;23.23;21.00;;;;;;;;;;2080678;28;20176;-59
2022/05/21 03:58:56;;;;;;;24.58;21.65;;;;;;;;;;2082077;28;20302;-57
2022/05/21 03:59:57;;;;;;;23.25;20.70;;;;;;;;;;2081617;28;20642;-56
2022/05/21 04:00:57;;;;;;;21.50;18.80;;;;;;;;;;2082205;28;20169;-58
2022/05/21 04:01:58;;;;;;;24.38;19.73;;;;;;;;;;2082009;28;20168;-57
2022/05/21 04:02:59;;;;;;;24.77;20.75;;;;;;;;;;2081196;28;20168;-58
2022/05/21 04:04:01;;;;;;;22.13;19.80;;;;;;;;;;2080867;28;20923;-54
2022/05/21 04:05:03;;;;;;;20.67;18.50;;;;;;;;;;2081911;28;20191;-56
2022/05/21 04:06:03;;;;;;;24.60;22.02;;;;;;;;;;2082038;28;20169;-57
2022/05/21 04:07:04;;;;;;;23.55;21.17;;;;;;;;;;2082055;28;20186;-58
2022/05/21 04:08:04;;;;;;;25.95;21.42;;;;;;;;;;2082031;28;20649;-56
2022/05/21 04:09:05;;;;;;;27.77;18.83;;;;;;;;;;2081882;28;20215;-59
2022/05/21 04:10:06;;;;;;;23.23;20.70;;;;;;;;;;2081696;28;20164;-56
2022/05/21 04:11:06;;;;;;;23.90;21.15;;;;;;;;;;2081914;28;20668;-54
2022/05/21 04:12:07;;;;;;;23.77;20.05;;;;;;;;;;2081223;28;20203;-55
2022/05/21 04:13:07;;;;;;;23.42;20.95;;;;;;;;;;2081443;28;20671;-57
2022/05/21 04:14:08;;;;;;;24.38;21.63;;;;;;;;;;2081648;28;20231;-55
2022/05/21 04:15:08;;;;;;;23.80;21.40;;;;;;;;;;2081676;28;20168;-55
2022/05/21 04:16:09;;;;;;;23.10;20.63;;;;;;;;;;2072855;28;20255;-55
2022/05/21 04:17:13;;;;;;;23.23;20.55;;;;;;;;;;2065168;28;20181;-55
2022/05/21 04:18:13;;;;;;;22.52;20.20;;;;;;;;;;2080984;28;20172;-58
2022/05/21 04:19:15;;;;;;;22.17;19.90;;;;;;;;;;2081486;28;20246;-56
2022/05/21 04:20:16;;;;;;;23.45;19.52;;;;;;;;;;2081241;28;20746;-57
2022/05/21 04:21:17;;;;;;;23.42;20.90;;;;;;;;;;2081571;28;20176;-56
2022/05/21 04:22:17;;;;;;;26.27;21.80;;;;;;;;;;2080920;28;20188;-57
2022/05/21 04:23:17;;;;;;;26.92;20.90;;;;;;;;;;2081119;28;20203;-54
2022/05/21 04:24:17;;;;;;;23.35;20.85;;;;;;;;;;2080957;28;20223;-53
2022/05/21 04:25:18;;;;;;;26.83;21.63;;;;;;;;;;2081099;28;20188;-56
2022/05/21 04:26:18;;;;;;;24.00;20.55;;;;;;;;;;2081173;28;20188;-57
2022/05/21 04:27:19;;;;;;;23.77;21.25;;;;;;;;;;2082280;28;20184;-56
2022/05/21 04:28:19;;;;;;;24.08;21.75;;;;;;;;;;2082770;28;20198;-55
2022/05/21 04:29:19;;;;;;;25.38;21.73;;;;;;;;;;2082477;28;20180;-58
2022/05/21 04:30:21;;;;;;;26.50;20.23;;;;;;;;;;2082903;28;20247;-53
2022/05/21 04:31:22;;;;;;;23.20;20.75;;;;;;;;;;2083168;28;20188;-57
2022/05/21 04:32:22;;;;;;;23.48;20.95;;;;;;;;;;2081594;28;20253;-55
2022/05/21 04:33:22;;;;;;;24.13;20.83;;;;;;;;;;2083592;28;20184;-56
2022/05/21 04:34:22;;;;;;;25.30;21.48;;;;;;;;;;2083095;28;20184;-56
2022/05/21 04:35:23;;;;;;;22.92;20.52;;;;;;;;;;2083877;28;20175;-56
2022/05/21 04:36:23;;;;;;;23.45;20.15;;;;;;;;;;2084062;28;20183;-57
2022/05/21 04:37:24;;;;;;;25.83;20.70;;;;;;;;;;2083932;28;20167;-55
2022/05/21 04:38:25;;;;;;;23.98;21.00;;;;;;;;;;2083288;28;20182;-56
2022/05/21 04:39:26;;;;;;;24.25;21.02;;;;;;;;;;2083393;28;20186;-56
2022/05/21 04:40:26;;;;;;;23.73;19.98;;;;;;;;;;2083114;28;20180;-53
2022/05/21 04:41:27;;;;;;;25.15;22.13;;;;;;;;;;2082316;28;20172;-57
2022/05/21 04:42:27;;;;;;;28.05;20.95;;;;;;;;;;2084217;28;20191;-55
2022/05/21 04:43:27;;;;;;;25.52;22.10;;;;;;;;;;2083383;28;20188;-54
2022/05/21 04:44:31;;;;;;;25.33;20.58;;;;;;;;;;2082383;28;20220;-53
2022/05/21 04:45:31;;;;;;;24.02;21.50;;;;;;;;;;2083062;28;20180;-54
2022/05/21 04:46:32;;;;;;;23.77;21.17;;;;;;;;;;2074882;28;20207;-53
2022/05/21 04:47:32;;;;;;;25.20;19.92;;;;;;;;;;2074647;28;20213;-55
2022/05/21 04:48:32;;;;;;;23.48;20.73;;;;;;;;;;2075496;28;20185;-56
2022/05/21 04:49:34;;;;;;;25.10;19.08;;;;;;;;;;2082785;28;20686;-56
2022/05/21 04:50:38;;;;;;;24.80;20.67;;;;;;;;;;2082893;28;20191;-56
2022/05/21 04:51:38;;;;;;;28.00;20.75;;;;;;;;;;2082498;28;20246;-56
2022/05/21 04:52:38;;;;;;;26.05;21.13;;;;;;;;;;2082949;28;20168;-56
2022/05/21 04:53:39;;;;;;;23.55;20.27;;;;;;;;;;2082261;28;20573;-53
2022/05/21 04:54:39;;;;;;;23.70;19.52;;;;;;;;;;2081987;28;20188;-55
2022/05/21 04:55:40;;;;;;;24.65;21.08;;;;;;;;;;2082067;28;20255;-53
2022/05/21 04:56:40;;;;;;;22.17;19.88;;;;;;;;;;2074193;28;20228;-55
2022/05/21 04:57:40;;;;;;;21.63;19.40;;;;;;;;;;2082319;28;20204;-57
2022/05/21 04:58:41;;;;;;;24.65;20.55;;;;;;;;;;2082845;28;20542;-54
2022/05/21 04:59:41;;;;;;;24.58;20.65;;;;;;;;;;2082682;28;20877;-57
2022/05/21 05:00:41;;;;;;;23.40;19.88;;;;;;;;;;2082975;28;20176;-55
2022/05/21 05:01:41;;;;;;;23.50;20.55;;;;;;;;;;2082266;28;20176;-54
2022/05/21 05:02:42;;;;;;;24.42;20.73;;;;;;;;;;2083096;28;20173;-55
2022/05/21 05:03:43;;;;;;;23.30;19.23;;;;;;;;;;2083371;28;20175;-57
2022/05/21 05:04:43;;;;;;;21.67;19.40;;;;;;;;;;2084712;28;20540;-56
2022/05/21 05:05:44;;;;;;;22.08;18.55;;;;;;;;;;2086390;28;20183;-59
2022/05/21 05:06:44;;;;;;;22.50;20.10;;;;;;;;;;2086421;28;20175;-56
2022/05/21 05:07:45;;;;;;;24.33;19.65;;;;;;;;;;2086259;28;20177;-57
2022/05/21 05:08:45;;;;;;;22.55;20.20;;;;;;;;;;2085875;28;20195;-56
2022/05/21 05:09:46;;;;;;;25.70;20.30;;;;;;;;;;2085655;28;20175;-57
2022/05/21 05:10:47;;;;;;;21.55;18.40;;;;;;;;;;2084955;28;20169;-57
2022/05/21 05:11:47;;;;;;;23.98;20.40;;;;;;;;;;2085167;28;20172;-56
2022/05/21 05:12:47;;;;;;;23.05;20.42;;;;;;;;;;2084906;28;20263;-54
2022/05/21 05:13:47;;;;;;;23.45;19.35;;;;;;;;;;2084316;28;20250;-57
2022/05/21 05:14:48;;;;;;;23.88;20.27;;;;;;;;;;2077527;28;20581;-53
2022/05/21 05:15:48;;;;;;;26.00;19.70;;;;;;;;;;2075370;28;20173;-57
2022/05/21 05:16:49;;;;;;;23.80;19.63;;;;;;;;;;2083002;28;20171;-53
2022/05/21 05:17:50;;;;;;;25.20;20.20;;;;;;;;;;2083146;28;20183;-57
2022/05/21 05:18:50;;;;;;;22.83;20.08;;;;;;;;;;2082872;28;20164;-56
2022/05/21 05:19:54;;;;;;;22.05;18.63;;;;;;;;;;2082884;28;20211;-55
2022/05/21 05:20:54;;;;;;;22.80;20.02;;;;;;;;;;2074377;28;20207;-54
2022/05/21 05:21:55;;;;;;;20.52;18.42;;;;;;;;;;2074726;28;20176;-54
2022/05/21 05:22:55;;;;;;;23.13;18.70;;;;;;;;;;2074599;28;20173;-57
2022/05/21 05:23:55;;;;;;;22.45;19.98;;;;;;;;;;2074231;28;20200;-57
2022/05/21 05:26:00;;;;;;;22.33;18.10;;;;;;;;;;2065383;28;20210;-59
2022/05/21 05:27:01;;;;;;;20.80;18.70;;;;;;;;;;2074141;28;20559;-54
2022/05/21 05:28:02;;;;;;;22.25;19.52;;;;;;;;;;2074600;28;20169;-54
2022/05/21 05:29:02;;;;;;;22.70;19.80;;;;;;;;;;2074979;28;20836;-55
2022/05/21 05:30:03;;;;;;;27.45;20.73;;;;;;;;;;2072133;28;20206;-51
2022/05/21 05:31:03;;;;;;;20.33;17.90;;;;;;;;;;2070281;28;20664;-55
2022/05/21 05:32:04;;;;;;;22.70;18.58;;;;;;;;;;2074565;28;20208;-53
2022/05/21 05:33:04;;;;;;;23.90;18.58;;;;;;;;;;2074527;28;20250;-52
2022/05/21 05:34:04;;;;;;;21.20;19.00;;;;;;;;;;2072766;28;20630;-57
2022/05/21 05:35:05;;;;;;;25.63;18.15;;;;;;;;;;2071346;28;20692;-57
2022/05/21 05:36:05;;;;;;;20.38;16.90;;;;;;;;;;2073790;28;20196;-57
2022/05/21 05:37:06;;;;;;;20.48;18.30;;;;;;;;;;2072232;28;20186;-53
2022/05/21 05:38:10;;;;;;;20.90;18.70;;;;;;;;;;2071853;28;20161;-53
2022/05/21 05:39:10;;;;;;;22.45;19.50;;;;;;;;;;2071378;28;20165;-55
2022/05/21 05:40:16;;;;;;;22.77;18.17;;;;;;;;;;2082665;28;20188;-53
2022/05/21 05:41:16;;;;;;;21.38;17.85;;;;;;;;;;2082374;28;20152;-55
2022/05/21 05:42:17;;;;;;;19.77;17.08;;;;;;;;;;2069324;28;20202;-54
2022/05/21 05:43:19;;;;;;;20.85;17.58;;;;;;;;;;2073778;28;20256;-59
2022/05/21 05:44:20;;;;;;;20.23;16.70;;;;;;;;;;2072862;28;20182;-56
2022/05/21 05:45:20;;;;;;;20.65;16.20;;;;;;;;;;2072507;28;20204;-52
2022/05/21 05:46:21;;;;;;;21.08;18.42;;;;;;;;;;2077217;28;20696;-52
2022/05/21 05:47:21;;;;;;;23.02;17.63;;;;;;;;;;2080470;28;20188;-51
2022/05/21 05:48:21;;;;;;;21.45;18.23;;;;;;;;;;2079369;28;20176;-60
2022/05/21 05:49:21;;;;;;;22.88;17.58;;;;;;;;;;2074160;28;20185;-62
2022/05/21 05:50:22;;;;;;;20.42;17.98;;;;;;;;;;2073315;28;20603;-63
2022/05/21 05:51:22;;;;;;;22.60;17.15;;;;;;;;;;2065893;28;20268;-61
2022/05/21 05:52:24;;;;;;;20.48;16.75;;;;;;;;;;2065851;28;20224;-58
2022/05/21 05:53:24;;;;;;;22.75;17.17;;;;;;;;;;2065862;28;20177;-63
2022/05/21 05:54:24;;;;;;;22.70;17.05;;;;;;;;;;2065321;28;20192;-61
2022/05/21 05:55:24;;;;;;;23.00;17.90;;;;;;;;;;2065274;28;20561;-63
2022/05/21 05:56:25;;;;;;;22.00;18.30;;;;;;;;;;2065321;28;20737;-62
2022/05/21 05:57:25;;;;;;;19.65;16.90;;;;;;;;;;2065896;28;20262;-64
2022/05/21 05:59:50;;;;;;;18.50;16.40;;;;;;;;;;2067441;28;20201;-61
2022/05/21 06:00:52;;;;;;;18.73;15.88;;;;;;;;;;2073565;28;20553;-64
2022/05/21 06:02:57;;;;;;;22.63;17.30;;;;;;;;;;2073837;28;20483;-63
2022/05/21 06:03:13;;;;;;;20.75;17.58;;;;;;;;;;2070934;28;20165;-53
2022/05/21 06:04:13;;;;;;;22.40;16.73;;;;;;;;;;2073639;28;20220;-59
2022/05/21 06:05:15;;;;;;;22.70;15.98;;;;;;;;;;2073738;28;20192;-65
2022/05/21 06:06:15;;;;;;;20.60;16.25;;;;;;;;;;2073930;28;20169;-62
2022/05/21 06:07:15;;;;;;;20.02;16.90;;;;;;;;;;2073902;28;20185;-66